createdAt,value
2022-09-02T00:01:47.232Z,101208.52
2022-09-02T00:04:27.083Z,101211.38
2022-09-02T00:06:55.891Z,101214.17
2022-09-02T00:09:28.389Z,101217.37
2022-09-02T00:11:57.897Z,101221.55
2022-09-02T00:14:36.246Z,101226.24
2022-09-02T00:17:05.753Z,101225.78
2022-09-02T00:19:35.138Z,101226.82
2022-09-02T00:22:04.410Z,101223.56
2022-09-02T00:24:33.195Z,101224.25
2022-09-02T00:27:01.970Z,101223.31
2022-09-02T00:29:31.230Z,101226.56
2022-09-02T00:31:59.954Z,101226.48
2022-09-02T00:34:28.825Z,101229.31
2022-09-02T00:36:58.302Z,101236.01
2022-09-02T00:39:26.929Z,101237.59
2022-09-02T00:41:55.774Z,101240.14
2022-09-02T00:44:24.854Z,101239.89
2022-09-02T00:46:53.444Z,101237.70
2022-09-02T00:49:28.142Z,101237.34
2022-09-02T00:52:25.764Z,101244.95
2022-09-02T00:55:02.590Z,101248.52
2022-09-02T00:57:40.222Z,101248.48
2022-09-02T01:00:31.269Z,101249.70
2022-09-02T01:03:08.012Z,101257.30
2022-09-02T01:05:44.370Z,101257.67
2022-09-02T01:08:23.355Z,101257.29
2022-09-02T01:10:55.988Z,101254.91
2022-09-02T01:13:31.238Z,101252.94
2022-09-02T01:16:20.162Z,101259.51
2022-09-02T01:18:53.990Z,101257.83
2022-09-02T01:21:23.750Z,101257.73
2022-09-02T01:23:54.008Z,101255.83
2022-09-02T01:26:22.691Z,101256.46
2022-09-02T01:28:53.233Z,101257.79
2022-09-02T01:31:21.952Z,101252.88
2022-09-02T01:33:51.612Z,101253.63
2022-09-02T01:36:22.757Z,101258.23
2022-09-02T01:38:51.569Z,101261.61
2022-09-02T01:41:20.632Z,101268.36
2022-09-02T01:43:49.318Z,101269.05
2022-09-02T01:46:17.901Z,101271.80
2022-09-02T01:48:46.475Z,101274.05
2022-09-02T01:51:20.076Z,101272.83
2022-09-02T01:53:49.287Z,101269.02
2022-09-02T01:56:17.940Z,101272.55
2022-09-02T01:58:46.645Z,101276.18
2022-09-02T02:01:15.764Z,101279.75
2022-09-02T02:03:47.293Z,101287.36
2022-09-02T02:06:19.599Z,101284.27
2022-09-02T02:08:49.519Z,101287.23
2022-09-02T02:11:24.845Z,101294.30
2022-09-02T02:13:58.353Z,101292.17
2022-09-02T02:16:27.467Z,101287.71
2022-09-02T02:18:56.249Z,101287.90
2022-09-02T02:21:25.368Z,101284.30
2022-09-02T02:23:54.401Z,101286.73
2022-09-02T02:26:23.143Z,101289.04
2022-09-02T02:28:51.766Z,101297.20
2022-09-02T02:31:20.878Z,101295.45
2022-09-02T02:33:51.120Z,101302.17
2022-09-02T02:36:20.271Z,101304.28
2022-09-02T02:38:48.918Z,101312.83
2022-09-02T02:41:18.805Z,101318.80
2022-09-02T02:43:48.163Z,101316.99
2022-09-02T02:46:17.091Z,101312.94
2022-09-02T02:48:46.041Z,101308.17
2022-09-02T02:51:15.077Z,101313.06
2022-09-02T02:53:43.699Z,101319.16
2022-09-02T02:56:12.296Z,101321.59
2022-09-02T02:58:40.965Z,101316.89
2022-09-02T03:01:10.362Z,101310.77
2022-09-02T03:03:39.006Z,101308.63
2022-09-02T03:06:07.890Z,101309.84
2022-09-02T03:08:37.777Z,101311.81
2022-09-02T03:11:07.265Z,101312.10
2022-09-02T03:13:38.257Z,101314.31
2022-09-02T03:16:07.093Z,101317.31
2022-09-02T03:18:36.314Z,101321.60
2022-09-02T03:21:09.240Z,101326.71
2022-09-02T03:23:38.742Z,101327.33
2022-09-02T03:26:21.170Z,101324.92
2022-09-02T03:28:52.152Z,101323.10
2022-09-02T03:31:25.052Z,101325.60
2022-09-02T03:33:55.390Z,101322.85
2022-09-02T03:36:34.897Z,101327.66
2022-09-02T03:39:05.476Z,101323.58
2022-09-02T03:41:42.804Z,101320.61
2022-09-02T03:44:12.678Z,101319.08
2022-09-02T03:46:43.179Z,101321.00
2022-09-02T03:49:12.370Z,101322.11
2022-09-02T03:51:44.169Z,101318.66
2022-09-02T03:54:12.945Z,101321.55
2022-09-02T03:56:42.184Z,101322.60
2022-09-02T03:59:12.412Z,101327.86
2022-09-02T04:01:46.133Z,101334.77
2022-09-02T04:04:18.674Z,101338.54
2022-09-02T04:06:54.912Z,101347.86
2022-09-02T04:09:24.902Z,101347.62
2022-09-02T04:11:56.016Z,101348.48
2022-09-02T04:14:25.925Z,101352.89
2022-09-02T04:16:54.687Z,101356.35
2022-09-02T04:19:23.815Z,101353.98
2022-09-02T04:21:52.885Z,101360.33
2022-09-02T04:24:21.903Z,101360.91
2022-09-02T04:26:51.441Z,101368.13
2022-09-02T04:29:20.089Z,101368.97
2022-09-02T04:31:50.617Z,101366.60
2022-09-02T04:34:20.219Z,101366.48
2022-09-02T04:36:49.913Z,101367.41
2022-09-02T04:39:19.997Z,101369.05
2022-09-02T04:41:48.654Z,101369.45
2022-09-02T04:44:21.519Z,101371.89
2022-09-02T04:46:54.368Z,101371.05
2022-09-02T04:49:23.888Z,101371.69
2022-09-02T04:51:56.694Z,101368.36
2022-09-02T04:54:28.097Z,101362.09
2022-09-02T04:57:09.275Z,101359.67
2022-09-02T04:59:38.930Z,101363.00
2022-09-02T05:02:21.794Z,101363.10
2022-09-02T05:04:53.411Z,101363.39
2022-09-02T05:07:28.041Z,101360.81
2022-09-02T05:10:00.362Z,101360.71
2022-09-02T05:12:32.880Z,101360.77
2022-09-02T05:15:02.650Z,101359.63
2022-09-02T05:17:33.284Z,101359.48
2022-09-02T05:20:07.052Z,101357.83
2022-09-02T05:22:37.655Z,101356.27
2022-09-02T05:25:09.771Z,101355.59
2022-09-02T05:27:40.495Z,101351.38
2022-09-02T05:30:16.292Z,101348.42
2022-09-02T05:32:47.615Z,101348.48
2022-09-02T05:35:19.328Z,101348.48
2022-09-02T05:37:51.060Z,101350.88
2022-09-02T05:40:22.827Z,101350.21
2022-09-02T05:42:54.468Z,101354.82
2022-09-02T05:45:30.807Z,101352.98
2022-09-02T05:48:23.204Z,101358.31
2022-09-02T05:50:57.298Z,101357.23
2022-09-02T05:53:32.563Z,101360.55
2022-09-02T05:56:09.153Z,101358.36
2022-09-02T05:58:39.462Z,101359.48
2022-09-02T06:01:14.270Z,101363.44
2022-09-02T06:03:43.414Z,101365.61
2022-09-02T06:06:12.776Z,101369.59
2022-09-02T06:08:43.341Z,101373.02
2022-09-02T06:11:13.126Z,101374.16
2022-09-02T06:13:43.199Z,101374.77
2022-09-02T06:16:16.636Z,101375.78
2022-09-02T06:18:46.585Z,101381.63
2022-09-02T06:21:17.127Z,101384.48
2022-09-02T06:23:49.233Z,101389.15
2022-09-02T06:26:18.780Z,101388.55
2022-09-02T06:28:48.066Z,101389.64
2022-09-02T06:31:22.070Z,101397.06
2022-09-02T06:33:56.727Z,101396.56
2022-09-02T06:36:29.301Z,101398.77
2022-09-02T06:39:01.281Z,101400.89
2022-09-02T06:41:42.035Z,101400.77
2022-09-02T06:44:12.519Z,101400.94
2022-09-02T06:46:51.675Z,101400.91
2022-09-02T06:49:25.223Z,101400.19
2022-09-02T06:51:57.048Z,101398.86
2022-09-02T06:54:30.252Z,101398.40
2022-09-02T06:57:07.476Z,101401.39
2022-09-02T06:59:38.304Z,101404.36
2022-09-02T07:02:07.907Z,101403.96
2022-09-02T07:04:57.617Z,101405.21
2022-09-02T07:07:26.703Z,101401.69
2022-09-02T07:10:01.533Z,101403.09
2022-09-02T07:12:30.293Z,101405.05
2022-09-02T07:15:06.297Z,101410.45
2022-09-02T07:17:42.020Z,101409.88
2022-09-02T07:20:17.873Z,101412.09
2022-09-02T07:25:20.362Z,101410.30
2022-09-02T07:27:51.699Z,101413.48
2022-09-02T07:30:21.028Z,101409.14
2022-09-02T07:32:53.277Z,101410.88
2022-09-02T07:35:23.978Z,101405.63
2022-09-02T07:37:52.571Z,101404.05
2022-09-02T07:40:23.738Z,101399.49
2022-09-02T07:42:53.295Z,101402.31
2022-09-02T07:45:22.326Z,101400.18
2022-09-02T07:47:51.102Z,101398.15
2022-09-02T07:50:22.149Z,101398.69
2022-09-02T07:52:59.367Z,101397.98
2022-09-02T07:55:31.360Z,101396.73
2022-09-02T07:58:00.128Z,101397.31
2022-09-02T08:00:29.100Z,101399.52
2022-09-02T08:03:02.293Z,101397.66
2022-09-02T08:05:36.890Z,101387.36
2022-09-02T08:08:06.963Z,101389.20
2022-09-02T08:10:37.230Z,101391.04
2022-09-02T08:13:07.000Z,101392.51
2022-09-02T08:15:37.129Z,101393.23
2022-09-02T08:18:07.576Z,101394.92
2022-09-02T08:20:37.476Z,101392.75
2022-09-02T08:23:12.439Z,101395.15
2022-09-02T08:25:47.286Z,101394.81
2022-09-02T08:28:16.048Z,101389.99
2022-09-02T08:30:45.384Z,101391.88
2022-09-02T08:33:13.957Z,101395.34
2022-09-02T08:35:42.483Z,101395.34
2022-09-02T08:38:10.974Z,101398.48
2022-09-02T08:40:43.123Z,101396.70
2022-09-02T08:43:51.526Z,101400.91
2022-09-02T08:46:26.115Z,101399.58
2022-09-02T08:48:59.929Z,101394.83
2022-09-02T08:51:41.821Z,101394.59
2022-09-02T08:54:28.569Z,101396.20
2022-09-02T08:56:58.291Z,101401.17
2022-09-02T08:59:31.568Z,101401.64
2022-09-02T09:02:33.867Z,101402.80
2022-09-02T09:05:41.688Z,101398.71
2022-09-02T09:08:50.628Z,101395.94
2022-09-02T09:11:57.582Z,101389.61
2022-09-02T09:15:13.443Z,101390.19
2022-09-02T09:17:52.236Z,101390.20
2022-09-02T09:20:35.141Z,101389.60
2022-09-02T09:23:23.530Z,101393.33
2022-09-02T09:26:01.952Z,101390.38
2022-09-02T09:28:30.564Z,101388.85
2022-09-02T09:31:02.063Z,101392.30
2022-09-02T09:33:31.013Z,101398.27
2022-09-02T09:35:59.715Z,101395.52
2022-09-02T09:38:31.644Z,101400.95
2022-09-02T09:41:22.027Z,101402.38
2022-09-02T09:43:51.046Z,101395.48
2022-09-02T09:46:22.682Z,101401.90
2022-09-02T09:48:54.170Z,101404.07
2022-09-02T09:51:23.065Z,101398.77
2022-09-02T09:54:19.343Z,101402.35
2022-09-02T09:56:49.285Z,101399.17
2022-09-02T09:59:58.173Z,101397.52
2022-09-02T10:02:34.432Z,101396.42
2022-09-02T10:05:37.557Z,101389.66
2022-09-02T10:08:29.021Z,101391.44
2022-09-02T10:11:18.635Z,101390.08
2022-09-02T10:13:47.409Z,101390.10
2022-09-02T10:17:02.725Z,101387.18
2022-09-02T10:19:55.485Z,101382.19
2022-09-02T10:23:00.911Z,101381.65
2022-09-02T10:26:00.257Z,101383.15
2022-09-02T10:28:54.168Z,101386.33
2022-09-02T10:31:54.568Z,101386.32
2022-09-02T10:34:40.903Z,101388.23
2022-09-02T10:37:19.425Z,101386.41
2022-09-02T10:40:19.723Z,101389.82
2022-09-02T10:43:03.418Z,101383.54
2022-09-02T10:45:37.264Z,101387.26
2022-09-02T10:48:40.058Z,101386.70
2022-09-02T10:51:08.348Z,101387.08
2022-09-02T10:53:48.781Z,101389.85
2022-09-02T10:56:22.270Z,101384.61
2022-09-02T10:59:19.954Z,101387.55
2022-09-02T11:02:32.395Z,101384.41
2022-09-02T11:05:12.972Z,101378.42
2022-09-02T11:07:58.780Z,101381.65
2022-09-02T11:10:54.937Z,101381.89
2022-09-02T11:13:30.879Z,101385.20
2022-09-02T11:16:33.678Z,101382.91
2022-09-02T11:19:09.733Z,101384.77
2022-09-02T11:21:53.373Z,101386.89
2022-09-02T11:24:36.108Z,101385.98
2022-09-02T11:27:39.012Z,101382.73
2022-09-02T11:30:16.936Z,101386.29
2022-09-02T11:33:30.915Z,101385.33
2022-09-02T11:36:00.719Z,101383.91
2022-09-02T11:38:52.745Z,101385.18
2022-09-02T11:41:53.674Z,101384.49
2022-09-02T11:45:17.875Z,101389.73
2022-09-02T11:48:20.595Z,101385.83
2022-09-02T11:51:09.150Z,101380.20
2022-09-02T11:53:42.857Z,101380.84
2022-09-02T11:56:22.225Z,101378.77
2022-09-02T11:58:53.647Z,101376.53
2022-09-02T12:01:47.641Z,101374.73
2022-09-02T12:07:09.068Z,101369.07
2022-09-02T12:09:50.455Z,101367.73
2022-09-02T12:12:37.400Z,101368.93
2022-09-02T12:15:06.780Z,101365.05
2022-09-02T12:17:50.131Z,101366.49
2022-09-02T12:20:41.636Z,101367.48
2022-09-02T12:23:54.155Z,101359.35
2022-09-02T12:26:38.735Z,101357.31
2022-09-02T12:29:32.523Z,101353.75
2022-09-02T12:32:01.701Z,101350.57
2022-09-02T12:34:30.244Z,101351.62
2022-09-02T12:37:01.512Z,101353.85
2022-09-02T12:39:30.787Z,101353.13
2022-09-02T12:42:15.674Z,101353.39
2022-09-02T12:45:14.958Z,101349.70
2022-09-02T12:48:07.827Z,101346.64
2022-09-02T12:50:57.996Z,101346.23
2022-09-02T12:53:42.447Z,101343.36
2022-09-02T12:56:14.178Z,101339.64
2022-09-02T12:58:51.072Z,101332.15
2022-09-02T13:02:17.147Z,101331.65
2022-09-02T13:04:57.719Z,101330.60
2022-09-02T13:08:04.503Z,101328.66
2022-09-02T13:11:40.804Z,101327.04
2022-09-02T13:14:49.227Z,101325.42
2022-09-02T13:18:03.167Z,101323.03
2022-09-02T13:21:13.296Z,101323.27
2022-09-02T13:24:09.614Z,101316.81
2022-09-02T13:26:53.203Z,101320.11
2022-09-02T13:29:46.509Z,101318.94
2022-09-02T13:32:30.981Z,101319.30
2022-09-02T13:35:08.724Z,101314.71
2022-09-02T13:37:45.588Z,101318.95
2022-09-02T13:40:21.604Z,101320.05
2022-09-02T13:42:54.124Z,101324.69
2022-09-02T13:45:35.579Z,101325.69
2022-09-02T13:48:25.346Z,101316.76
2022-09-02T13:51:03.552Z,101319.59
2022-09-02T13:54:21.710Z,101322.24
2022-09-02T13:56:39.972Z,101318.94
2022-09-02T13:59:08.620Z,101316.59
2022-09-02T14:01:40.428Z,101317.05
2022-09-02T14:04:16.668Z,101316.65
2022-09-02T14:06:49.035Z,101325.08
2022-09-02T14:09:29.087Z,101320.16
2022-09-02T14:11:59.334Z,101316.67
2022-09-02T14:14:29.559Z,101314.27
2022-09-02T14:17:25.327Z,101307.90
2022-09-02T14:20:16.143Z,101317.91
2022-09-02T14:22:53.412Z,101319.27
2022-09-02T14:25:27.234Z,101325.70
2022-09-02T14:28:01.287Z,101330.77
2022-09-02T14:30:41.957Z,101335.41
2022-09-02T14:33:22.791Z,101333.19
2022-09-02T14:36:15.474Z,101331.45
2022-09-02T14:38:43.789Z,101338.40
2022-09-02T14:41:18.659Z,101334.42
2022-09-02T14:44:10.626Z,101333.73
2022-09-02T14:46:52.451Z,101332.61
2022-09-02T14:49:56.371Z,101331.11
2022-09-02T14:52:36.566Z,101326.58
2022-09-02T14:55:06.636Z,101326.31
2022-09-02T14:57:39.275Z,101315.08
2022-09-02T15:00:15.116Z,101323.90
2022-09-02T15:02:48.817Z,101318.28
2022-09-02T15:05:17.729Z,101315.70
2022-09-02T15:07:46.893Z,101315.41
2022-09-02T15:10:15.685Z,101310.29
2022-09-02T15:12:54.953Z,101311.10
2022-09-02T15:15:23.855Z,101314.30
2022-09-02T15:17:52.507Z,101312.77
2022-09-02T15:20:22.118Z,101313.67
2022-09-02T15:22:53.158Z,101305.92
2022-09-02T15:25:22.041Z,101304.73
2022-09-02T15:27:50.718Z,101309.10
2022-09-02T15:30:19.338Z,101308.02
2022-09-02T15:32:48.381Z,101308.13
2022-09-02T15:35:17.142Z,101304.02
2022-09-02T15:37:50.588Z,101295.70
2022-09-02T15:40:19.295Z,101292.72
2022-09-02T15:42:47.968Z,101293.56
2022-09-02T15:45:16.791Z,101290.80
2022-09-02T15:47:45.303Z,101292.58
2022-09-02T15:50:14.242Z,101290.86
2022-09-02T15:52:43.129Z,101293.33
2022-09-02T15:55:11.704Z,101284.70
2022-09-02T15:57:41.534Z,101285.56
2022-09-02T16:00:11.018Z,101285.62
2022-09-02T16:02:45.203Z,101282.33
2022-09-02T16:05:14.293Z,101277.00
2022-09-02T16:07:42.886Z,101278.94
2022-09-02T16:10:11.804Z,101286.31
2022-09-02T16:12:40.471Z,101290.10
2022-09-02T16:15:09.738Z,101290.69
2022-09-02T16:17:38.284Z,101296.95
2022-09-02T16:20:07.460Z,101302.71
2022-09-02T16:22:36.409Z,101313.33
2022-09-02T16:25:05.640Z,101315.45
2022-09-02T16:27:52.406Z,101311.86
2022-09-02T16:30:21.644Z,101301.25
2022-09-02T16:32:53.228Z,101300.94
2022-09-02T16:35:22.127Z,101297.01
2022-09-02T16:37:51.171Z,101295.56
2022-09-02T16:40:21.845Z,101295.54
2022-09-02T16:42:50.633Z,101290.46
2022-09-02T16:45:19.683Z,101293.08
2022-09-02T16:47:48.259Z,101292.80
2022-09-02T16:50:16.873Z,101295.02
2022-09-02T16:52:45.572Z,101297.09
2022-09-02T16:55:18.841Z,101299.31
2022-09-02T16:57:47.458Z,101299.34
2022-09-02T17:00:17.020Z,101302.20
2022-09-02T17:02:45.695Z,101301.34
2022-09-02T17:05:17.512Z,101304.84
2022-09-02T17:07:47.079Z,101310.52
2022-09-02T17:10:15.649Z,101308.20
2022-09-02T17:12:44.209Z,101312.02
2022-09-02T17:15:12.917Z,101315.20
2022-09-02T17:17:42.544Z,101313.40
2022-09-02T17:20:13.308Z,101310.36
2022-09-02T17:22:42.127Z,101315.73
2022-09-02T17:25:11.959Z,101315.67
2022-09-02T17:27:42.243Z,101317.89
2022-09-02T17:30:11.847Z,101319.42
2022-09-02T17:32:42.117Z,101315.84
2022-09-02T17:35:12.447Z,101321.11
2022-09-02T17:37:41.511Z,101319.98
2022-09-02T17:40:30.451Z,101317.69
2022-09-02T17:42:58.965Z,101322.08
2022-09-02T17:45:27.533Z,101323.30
2022-09-02T17:47:59.237Z,101324.11
2022-09-02T17:50:33.572Z,101324.02
2022-09-02T17:53:02.144Z,101320.15
2022-09-02T17:55:34.621Z,101321.08
2022-09-02T17:58:16.882Z,101320.80
2022-09-02T18:00:47.369Z,101319.41
2022-09-02T18:03:55.885Z,101316.38
2022-09-02T18:06:31.959Z,101322.71
2022-09-02T18:09:04.144Z,101319.27
2022-09-02T18:11:33.029Z,101314.22
2022-09-02T18:14:36.167Z,101318.43
2022-09-02T18:17:37.970Z,101316.23
2022-09-02T18:20:33.568Z,101320.95
2022-09-02T18:23:37.490Z,101324.38
2022-09-02T18:26:49.299Z,101323.45
2022-09-02T18:30:06.387Z,101327.14
2022-09-02T18:32:50.362Z,101331.57
2022-09-02T18:36:08.786Z,101337.88
2022-09-02T18:38:44.597Z,101346.80
2022-09-02T18:41:22.345Z,101347.55
2022-09-02T18:44:13.808Z,101342.00
2022-09-02T18:47:05.371Z,101337.55
2022-09-02T18:49:36.926Z,101339.15
2022-09-02T18:52:11.632Z,101338.76
2022-09-02T18:55:12.161Z,101337.27
2022-09-02T18:58:00.251Z,101331.95
2022-09-02T19:00:51.991Z,101335.52
2022-09-02T19:03:20.627Z,101332.35
2022-09-02T19:05:49.447Z,101333.33
2022-09-02T19:08:38.360Z,101332.07
2022-09-02T19:11:12.977Z,101336.54
2022-09-02T19:13:49.399Z,101336.67
2022-09-02T19:16:22.538Z,101342.91
2022-09-02T19:18:51.716Z,101336.08
2022-09-02T19:21:48.250Z,101339.52
2022-09-02T19:24:57.177Z,101340.24
2022-09-02T19:27:36.507Z,101336.86
2022-09-02T19:30:14.725Z,101334.80
2022-09-02T19:32:47.961Z,101328.02
2022-09-02T19:35:20.588Z,101324.98
2022-09-02T19:37:53.394Z,101326.77
2022-09-02T19:40:30.935Z,101333.36
2022-09-02T19:43:04.022Z,101328.01
2022-09-02T19:45:39.237Z,101327.35
2022-09-02T19:48:11.484Z,101334.27
2022-09-02T19:50:46.605Z,101336.30
2022-09-02T19:53:30.536Z,101338.98
2022-09-02T19:56:03.822Z,101343.98
2022-09-02T19:58:34.778Z,101344.02
2022-09-02T20:01:06.596Z,101341.81
2022-09-02T20:03:35.517Z,101338.96
2022-09-02T20:06:04.309Z,101339.63
2022-09-02T20:08:32.784Z,101336.11
2022-09-02T20:11:04.589Z,101337.20
2022-09-02T20:13:41.380Z,101337.92
2022-09-02T20:16:24.171Z,101344.41
2022-09-02T20:18:54.253Z,101348.42
2022-09-02T20:21:47.050Z,101348.45
2022-09-02T20:24:23.862Z,101350.66
2022-09-02T20:27:14.153Z,101351.73
2022-09-02T20:30:07.935Z,101350.13
2022-09-02T20:33:08.486Z,101343.66
2022-09-02T20:36:12.307Z,101347.27
2022-09-02T20:38:46.875Z,101345.69
2022-09-02T20:41:52.193Z,101343.83
2022-09-02T20:44:38.749Z,101350.27
2022-09-02T20:47:37.481Z,101346.27
2022-09-02T20:50:28.073Z,101353.61
2022-09-02T20:53:32.052Z,101357.25
2022-09-02T20:56:19.997Z,101355.77
2022-09-02T20:59:20.603Z,101353.67
2022-09-02T21:01:50.743Z,101353.81
2022-09-02T21:04:25.920Z,101353.39
2022-09-02T21:07:01.718Z,101349.82
2022-09-02T21:09:39.028Z,101345.83
2022-09-02T21:12:19.873Z,101341.71
2022-09-02T21:15:25.744Z,101340.46
2022-09-02T21:18:14.489Z,101341.91
2022-09-02T21:21:05.217Z,101339.65
2022-09-02T21:23:49.106Z,101331.24
2022-09-02T21:26:48.993Z,101331.59
2022-09-02T21:29:29.118Z,101331.78
2022-09-02T21:32:37.214Z,101334.23
2022-09-02T21:35:14.402Z,101335.27
2022-09-02T21:37:45.725Z,101341.29
2022-09-02T21:40:20.478Z,101339.08
2022-09-02T21:43:25.343Z,101338.90
2022-09-02T21:46:25.850Z,101337.67
2022-09-02T21:49:06.333Z,101337.25
2022-09-02T21:51:49.867Z,101343.13
2022-09-02T21:54:41.623Z,101340.78
2022-09-02T21:57:42.633Z,101347.35
2022-09-02T22:00:16.484Z,101345.27
2022-09-02T22:03:23.584Z,101340.63
2022-09-02T22:06:16.423Z,101336.85
2022-09-02T22:08:56.490Z,101334.57
2022-09-02T22:12:04.992Z,101334.27
2022-09-02T22:15:02.529Z,101339.05
2022-09-02T22:17:56.356Z,101339.11
2022-09-02T22:20:35.437Z,101335.27
2022-09-02T22:23:17.811Z,101328.33
2022-09-02T22:25:51.544Z,101325.45
2022-09-02T22:28:43.299Z,101325.10
2022-09-02T22:31:18.055Z,101323.70
2022-09-02T22:33:55.967Z,101320.34
2022-09-02T22:36:55.427Z,101315.33
2022-09-02T22:39:36.567Z,101313.47
2022-09-02T22:42:41.917Z,101311.88
2022-09-02T22:46:03.118Z,101310.81
2022-09-02T22:49:08.897Z,101311.09
2022-09-02T22:52:08.954Z,101308.13
2022-09-02T22:54:37.813Z,101309.73
2022-09-02T22:58:10.505Z,101305.54
2022-09-02T23:01:28.264Z,101303.70
2022-09-02T23:04:24.955Z,101308.37
2022-09-02T23:07:05.617Z,101306.73
2022-09-02T23:09:38.917Z,101304.00
2022-09-02T23:12:31.857Z,101301.94
2022-09-02T23:15:11.589Z,101295.92
2022-09-02T23:18:14.282Z,101297.10
2022-09-02T23:21:12.209Z,101299.48
2022-09-02T23:24:09.526Z,101305.08
2022-09-02T23:26:47.466Z,101307.45
2022-09-02T23:29:24.437Z,101307.92
2022-09-02T23:32:39.535Z,101311.00
2022-09-02T23:35:17.530Z,101317.55
2022-09-02T23:37:54.878Z,101315.27
2022-09-02T23:40:31.752Z,101315.05
2022-09-02T23:43:01.519Z,101326.02
2022-09-02T23:45:33.028Z,101326.27
2022-09-02T23:48:19.949Z,101334.99
2022-09-02T23:51:16.397Z,101336.79
2022-09-02T23:54:18.883Z,101335.67
2022-09-02T23:57:15.362Z,101332.70
